Meteorología y climatología de Navarra
Datos de la estación - Meteo Navarra

Estación de Erremendia (Salazar) GN

Altitud 1047 m.


Datos desde el 12/09/2019 hasta el 13/09/2019 en horario solar
Los datos son PROVISIONALES

Anterior Página 1 de 1 Siguiente Descargar: Formato para Excel 2000 o superior   Formato csv   Formato para OpenOffice Calc
Fecha Temperatura Humedad relativa Radiación global Insolación Precipitación Vel. viento 10 m Vel. viento 10 m Dir. viento 10 m
ºC % W/m² s l/m² m/s km/h º
12/09/2019 0:00 3.4 95 0.0 0 0.0 0.4 1.4 218
12/09/2019 0:10 3.2 95 0.0 0 0.0 0.5 1.7 219
12/09/2019 0:20 3.1 95 0.0 0 0.0 0.2 0.6 107
12/09/2019 0:30 3.0 95 0.0 0 0.0 0.2 0.6 127
12/09/2019 0:40 2.9 96 0.0 0 0.0 0.2 0.6 35
12/09/2019 0:50 2.9 96 0.0 0 0.0 0.5 1.7 53
12/09/2019 1:00 2.9 96 0.0 0 0.0 0.3 1.0 107
12/09/2019 1:10 2.7 96 0.0 0 0.0 0.3 1.2 14
12/09/2019 1:20 2.7 96 0.0 0 0.0 0.4 1.5 94
12/09/2019 1:30 2.9 96 0.0 0 0.0 0.1 0.5 38
12/09/2019 1:40 2.6 96 0.0 0 0.0 0.1 0.5 79
12/09/2019 1:50 2.3 96 0.0 0 0.0 0.4 1.4 70
12/09/2019 2:00 2.3 96 0.0 0 0.0 0.1 0.5 70
12/09/2019 2:10 2.2 96 0.0 0 0.0 0.4 1.3 81
12/09/2019 2:20 2.2 96 0.0 0 0.0 0.3 1.1 74
12/09/2019 2:30 2.3 97 0.0 0 0.0 0.0 0.1 43
12/09/2019 2:40 2.0 96 0.0 0 0.0 0.4 1.4 0
12/09/2019 2:50 1.7 96 0.0 0 0.0 0.3 1.2 149
12/09/2019 3:00 1.9 97 0.0 0 0.0 0.2 0.8 58
12/09/2019 3:10 2.3 97 0.0 0 0.0 0.8 3.0 31
12/09/2019 3:20 2.2 97 0.0 0 0.0 0.8 2.7 174
12/09/2019 3:30 2.2 97 0.0 0 0.0 0.3 1.2 297
12/09/2019 3:40 2.0 97 0.0 0 0.0 0.4 1.3 60
12/09/2019 3:50 2.2 97 0.0 0 0.0 0.4 1.4 46
12/09/2019 4:00 1.8 97 0.0 0 0.0 0.3 1.2 86
12/09/2019 4:10 1.9 97 0.0 0 0.0 0.7 2.5 79
12/09/2019 4:20 1.9 97 0.0 0 0.0 0.6 2.2 221
12/09/2019 4:30 2.2 97 0.0 0 0.0 0.5 1.7 12
12/09/2019 4:40 2.4 97 0.0 0 0.0 0.4 1.5 75
12/09/2019 4:50 2.2 97 0.0 0 0.0 0.8 2.7 67
12/09/2019 5:00 2.2 97 0.0 0 0.0 0.8 2.9 113
12/09/2019 5:10 2.1 97 0.0 0 0.0 0.6 2.0 113
12/09/2019 5:20 1.9 97 0.0 0 0.0 0.4 1.6 84
12/09/2019 5:30 1.7 97 0.0 0 0.0 0.3 1.1 71
12/09/2019 5:40 1.6 97 0.0 0 0.0 0.8 2.8 83
12/09/2019 5:50 1.5 97 0.0 0 0.0 0.5 1.9 71
12/09/2019 6:00 1.3 97 11.6 0 0.0 0.5 1.9 85
12/09/2019 6:10 1.7 97 38.3 350 0.0 0.5 1.8 97
12/09/2019 6:20 2.2 98 67.0 600 0.0 0.3 1.1 87
12/09/2019 6:30 3.5 98 100.1 600 0.0 0.5 1.6 85
12/09/2019 6:40 4.5 98 134.4 600 0.0 0.7 2.7 78
12/09/2019 6:50 5.8 98 157.1 574 0.0 0.2 0.6 88
12/09/2019 7:00 7.0 97 195.5 600 0.0 0.1 0.3 18
12/09/2019 7:10 8.5 95 230.6 600 0.0 0.7 2.6 174
12/09/2019 7:20 10.2 90 261.1 594 0.0 0.3 1.0 172
12/09/2019 7:30 11.8 81 294.1 600 0.0 0.5 1.9 175
12/09/2019 7:40 12.2 77 322.4 600 0.0 0.8 2.8 199
12/09/2019 7:50 12.7 75 353.8 600 0.0 0.5 1.8 295
12/09/2019 8:00 13.2 73 383.4 600 0.0 0.7 2.4 335
12/09/2019 8:10 13.7 71 424.6 600 0.0 0.9 3.1 324
12/09/2019 8:20 14.5 69 454.7 600 0.0 0.8 2.9 300
12/09/2019 8:30 14.9 66 486.8 600 0.0 1.1 4.1 294
12/09/2019 8:40 15.4 66 474.2 562 0.0 1.1 4.0 303
12/09/2019 8:50 15.8 62 148.2 124 0.0 1.0 3.7 296
12/09/2019 9:00 16.3 62 556.8 578 0.0 1.3 4.5 302
12/09/2019 9:10 16.9 58 598.8 600 0.0 1.0 3.7 289
12/09/2019 9:20 17.9 53 623.5 600 0.0 0.9 3.1 196
12/09/2019 9:30 18.5 51 646.7 600 0.0 0.6 2.2 76
12/09/2019 9:40 19.0 50 655.4 600 0.0 0.7 2.6 139
12/09/2019 9:50 19.8 47 692.3 600 0.0 1.1 4.0 216
12/09/2019 10:00 19.4 49 706.7 600 0.0 1.6 5.8 293
12/09/2019 10:10 20.0 48 730.2 600 0.0 1.3 4.7 281
12/09/2019 10:20 20.8 46 748.0 600 0.0 1.7 6.2 284
12/09/2019 10:30 20.9 45 763.2 600 0.0 1.9 7.0 283
12/09/2019 10:40 21.5 43 776.8 600 0.0 1.5 5.5 271
12/09/2019 10:50 21.6 43 789.3 600 0.0 1.6 5.8 324
12/09/2019 11:00 21.5 43 799.6 600 0.0 1.7 6.2 340
12/09/2019 11:10 22.2 41 809.0 600 0.0 1.8 6.4 271
12/09/2019 11:20 22.6 40 816.0 600 0.0 1.4 5.0 269
12/09/2019 11:30 22.6 39 819.0 600 0.0 1.3 4.7 163
12/09/2019 11:40 22.7 39 825.0 600 0.0 2.0 7.1 201
12/09/2019 11:50 22.7 38 831.0 600 0.0 2.9 10.3 214
12/09/2019 12:00 22.9 37 836.0 600 0.0 3.1 11.0 231
12/09/2019 12:10 23.3 37 837.0 600 0.0 2.2 7.9 215
12/09/2019 12:20 23.0 37 833.0 600 0.0 2.2 7.8 188
12/09/2019 12:30 23.1 38 829.0 600 0.0 1.6 5.9 197
12/09/2019 12:40 23.5 38 824.0 600 0.0 2.4 8.5 287
12/09/2019 12:50 23.4 39 819.0 600 0.0 2.5 9.0 297
12/09/2019 13:00 23.6 41 809.0 600 0.0 2.7 9.8 311
12/09/2019 13:10 22.9 44 799.4 600 0.0 3.6 12.8 315
12/09/2019 13:20 22.3 46 787.8 600 0.0 3.6 12.9 312
12/09/2019 13:30 22.1 46 775.3 600 0.0 3.5 12.7 308
12/09/2019 13:40 22.0 47 759.7 600 0.0 2.8 10.2 309
12/09/2019 13:50 22.0 47 742.8 600 0.0 3.1 11.2 310
12/09/2019 14:00 21.9 49 725.4 600 0.0 3.1 11.1 321
12/09/2019 14:10 21.9 50 706.2 600 0.0 3.0 10.7 313
12/09/2019 14:20 21.8 51 684.9 600 0.0 2.5 9.0 312
12/09/2019 14:30 21.6 51 662.5 600 0.0 2.5 9.1 290
12/09/2019 14:40 21.6 52 641.1 600 0.0 2.3 8.1 288
12/09/2019 14:50 21.3 53 619.4 600 0.0 2.7 9.6 305
12/09/2019 15:00 21.4 53 591.0 600 0.0 2.7 9.6 269
12/09/2019 15:10 20.9 54 564.5 600 0.0 2.7 9.8 293
12/09/2019 15:20 20.9 54 535.5 600 0.0 2.4 8.7 303
12/09/2019 15:30 20.9 55 505.3 600 0.0 2.6 9.4 300
12/09/2019 15:40 21.1 55 472.8 600 0.0 1.5 5.5 286
12/09/2019 15:50 20.9 54 440.1 600 0.0 2.3 8.2 299
12/09/2019 16:00 20.4 57 407.3 600 0.0 2.3 8.1 282
12/09/2019 16:10 19.9 58 376.4 600 0.0 2.5 9.1 283
12/09/2019 16:20 19.8 59 344.3 600 0.0 2.3 8.4 274
12/09/2019 16:30 19.8 59 314.6 600 0.0 2.2 8.0 293
12/09/2019 16:40 19.2 61 283.1 600 0.0 1.7 6.2 288
12/09/2019 16:50 19.3 60 249.6 600 0.0 1.9 6.8 273
12/09/2019 17:00 19.1 60 213.7 600 0.0 2.3 8.2 274
12/09/2019 17:10 18.7 62 178.6 600 0.0 2.2 7.7 266
12/09/2019 17:20 18.2 64 147.1 600 0.0 1.8 6.3 291
12/09/2019 17:30 18.0 65 120.7 600 0.0 1.8 6.6 262
12/09/2019 17:40 17.5 67 93.7 600 0.0 1.9 6.7 255
12/09/2019 17:50 16.9 69 66.7 600 0.0 1.6 5.7 264
12/09/2019 18:00 16.2 72 45.1 600 0.0 1.6 5.7 262
12/09/2019 18:10 15.5 75 9.7 12 0.0 1.2 4.1 238
12/09/2019 18:20 15.0 78 0.0 0 0.0 1.2 4.4 237
12/09/2019 18:30 14.6 79 0.0 0 0.0 0.8 2.9 248
12/09/2019 18:40 14.2 81 0.0 0 0.0 0.9 3.4 249
12/09/2019 18:50 13.8 82 0.0 0 0.0 1.4 5.1 245
12/09/2019 19:00 13.7 83 0.0 0 0.0 1.3 4.7 230
12/09/2019 19:10 13.3 84 0.0 0 0.0 1.4 5.0 238
12/09/2019 19:20 12.8 85 0.0 0 0.0 1.1 3.8 227
12/09/2019 19:30 12.4 86 0.0 0 0.0 1.2 4.2 228
12/09/2019 19:40 12.1 88 0.0 0 0.0 1.5 5.2 216
12/09/2019 19:50 11.7 88 0.0 0 0.0 0.6 2.2 228
12/09/2019 20:00 11.0 89 0.0 0 0.0 0.2 0.9 247
12/09/2019 20:10 10.1 90 0.0 0 0.0 0.2 0.7 233
12/09/2019 20:20 9.6 91 0.0 0 0.0 0.1 0.2 259
12/09/2019 20:30 9.0 92 0.0 0 0.0 0.2 0.7 69
12/09/2019 20:40 8.8 93 0.0 0 0.0 0.3 0.9 338
12/09/2019 20:50 8.4 93 0.0 0 0.0 0.2 0.8 73
12/09/2019 21:00 8.2 93 0.0 0 0.0 0.2 0.8 75
12/09/2019 21:10 7.9 94 0.0 0 0.0 0.4 1.3 52
12/09/2019 21:20 7.9 94 0.0 0 0.0 0.5 1.8 68
12/09/2019 21:30 7.8 95 0.0 0 0.0 0.4 1.4 72
12/09/2019 21:40 7.4 94 0.0 0 0.0 0.3 1.0 71
12/09/2019 21:50 7.1 95 0.0 0 0.0 0.6 2.2 75
12/09/2019 22:00 7.1 95 0.0 0 0.0 0.5 1.7 64
12/09/2019 22:10 7.1 96 0.0 0 0.0 0.6 2.1 74
12/09/2019 22:20 7.0 96 0.0 0 0.0 0.5 1.7 91
12/09/2019 22:30 6.7 95 0.0 0 0.0 0.6 2.0 89
12/09/2019 22:40 6.5 96 0.0 0 0.0 0.3 0.9 74
12/09/2019 22:50 6.5 96 0.0 0 0.0 0.5 1.9 80
12/09/2019 23:00 6.7 96 0.0 0 0.0 0.8 2.7 69
12/09/2019 23:10 6.6 96 0.0 0 0.0 0.8 2.7 77
12/09/2019 23:20 6.4 96 0.0 0 0.0 0.8 2.7 84
12/09/2019 23:30 6.2 96 0.0 0 0.0 0.2 0.8 104
12/09/2019 23:40 6.3 96 0.0 0 0.0 0.2 0.6 115
12/09/2019 23:50 6.2 96 0.0 0 0.0 0.4 1.3 142
Anterior Página 1 de 1 Siguiente

NOTA: Tipo de datos según el color:
   - Valores diarios o 10 minutos correctos
   - Valores diarios calculados a partir de un número de datos 10 minutos menor que 144 y mayor que 120, o de un número de datos semihorarios menor que 48 y mayor que 40 (caso de las estaciones de Riegos de Navarra y del MARM)
   - Valores diez minutos estimados


Contacto        Enlaces        Aviso legal